sensor_id;sensor_type;location;lat;lon;timestamp;P1;durP1;ratioP1;P2;durP2;ratioP2
77016;SDS011;65949;53.132;17.930;2023-04-29T00:00:42;14.70;;;8.10;;
77016;SDS011;65949;53.132;17.930;2023-04-29T00:03:16;18.80;;;8.30;;
77016;SDS011;65949;53.132;17.930;2023-04-29T00:05:44;17.80;;;9.70;;
77016;SDS011;65949;53.132;17.930;2023-04-29T00:08:11;18.60;;;9.10;;
77016;SDS011;65949;53.132;17.930;2023-04-29T00:10:38;16.60;;;9.60;;
77016;SDS011;65949;53.132;17.930;2023-04-29T00:13:05;19.90;;;9.70;;
77016;SDS011;65949;53.132;17.930;2023-04-29T00:15:31;19.30;;;9.70;;
77016;SDS011;65949;53.132;17.930;2023-04-29T00:17:58;19.60;;;9.50;;
77016;SDS011;65949;53.132;17.930;2023-04-29T00:20:24;18.30;;;9.10;;
77016;SDS011;65949;53.132;17.930;2023-04-29T00:22:51;16.90;;;9.20;;
77016;SDS011;65949;53.132;17.930;2023-04-29T00:25:17;18.50;;;9.20;;
77016;SDS011;65949;53.132;17.930;2023-04-29T00:27:44;19.70;;;9.70;;
77016;SDS011;65949;53.132;17.930;2023-04-29T00:30:11;20.70;;;9.70;;
77016;SDS011;65949;53.132;17.930;2023-04-29T00:32:38;17.50;;;9.20;;
77016;SDS011;65949;53.132;17.930;2023-04-29T00:35:04;17.80;;;9.10;;
77016;SDS011;65949;53.132;17.930;2023-04-29T00:37:32;19.10;;;9.00;;
77016;SDS011;65949;53.132;17.930;2023-04-29T00:40:00;18.30;;;8.70;;
77016;SDS011;65949;53.132;17.930;2023-04-29T00:42:28;15.90;;;8.60;;
77016;SDS011;65949;53.132;17.930;2023-04-29T00:44:55;18.00;;;8.60;;
77016;SDS011;65949;53.132;17.930;2023-04-29T00:47:22;16.20;;;8.60;;
77016;SDS011;65949;53.132;17.930;2023-04-29T00:49:49;17.00;;;9.10;;
77016;SDS011;65949;53.132;17.930;2023-04-29T00:52:16;18.00;;;9.10;;
77016;SDS011;65949;53.132;17.930;2023-04-29T00:54:44;18.30;;;9.00;;
77016;SDS011;65949;53.132;17.930;2023-04-29T00:57:10;19.90;;;10.40;;
77016;SDS011;65949;53.132;17.930;2023-04-29T00:59:37;16.50;;;9.10;;
77016;SDS011;65949;53.132;17.930;2023-04-29T01:02:04;18.10;;;8.60;;
77016;SDS011;65949;53.132;17.930;2023-04-29T01:04:31;18.60;;;8.40;;
77016;SDS011;65949;53.132;17.930;2023-04-29T01:15:03;18.40;;;9.70;;
77016;SDS011;65949;53.132;17.930;2023-04-29T01:17:49;19.00;;;8.90;;
77016;SDS011;65949;53.132;17.930;2023-04-29T01:20:21;18.40;;;8.90;;
77016;SDS011;65949;53.132;17.930;2023-04-29T01:22:49;16.40;;;9.70;;
77016;SDS011;65949;53.132;17.930;2023-04-29T01:25:16;18.10;;;9.90;;
77016;SDS011;65949;53.132;17.930;2023-04-29T01:31:31;16.10;;;9.20;;
77016;SDS011;65949;53.132;17.930;2023-04-29T01:34:08;17.10;;;8.80;;
77016;SDS011;65949;53.132;17.930;2023-04-29T01:36:49;17.40;;;9.20;;
77016;SDS011;65949;53.132;17.930;2023-04-29T01:43:05;17.70;;;9.10;;
77016;SDS011;65949;53.132;17.930;2023-04-29T01:45:38;17.50;;;8.90;;
77016;SDS011;65949;53.132;17.930;2023-04-29T01:48:10;20.30;;;9.30;;
77016;SDS011;65949;53.132;17.930;2023-04-29T01:50:38;19.10;;;9.40;;
77016;SDS011;65949;53.132;17.930;2023-04-29T01:53:11;17.90;;;9.50;;
77016;SDS011;65949;53.132;17.930;2023-04-29T01:55:37;16.60;;;8.50;;
77016;SDS011;65949;53.132;17.930;2023-04-29T01:58:14;17.60;;;9.20;;
77016;SDS011;65949;53.132;17.930;2023-04-29T02:00:49;14.60;;;8.50;;
77016;SDS011;65949;53.132;17.930;2023-04-29T02:03:16;15.70;;;8.80;;
77016;SDS011;65949;53.132;17.930;2023-04-29T02:05:46;17.40;;;9.00;;
77016;SDS011;65949;53.132;17.930;2023-04-29T02:08:12;18.70;;;8.80;;
77016;SDS011;65949;53.132;17.930;2023-04-29T02:10:50;17.40;;;8.70;;
77016;SDS011;65949;53.132;17.930;2023-04-29T02:13:26;16.30;;;8.80;;
77016;SDS011;65949;53.132;17.930;2023-04-29T02:15:53;17.10;;;9.00;;
77016;SDS011;65949;53.132;17.930;2023-04-29T02:18:20;19.60;;;10.10;;
77016;SDS011;65949;53.132;17.930;2023-04-29T02:20:47;16.70;;;9.00;;
77016;SDS011;65949;53.132;17.930;2023-04-29T02:23:16;16.60;;;9.60;;
77016;SDS011;65949;53.132;17.930;2023-04-29T02:25:43;18.80;;;9.80;;
77016;SDS011;65949;53.132;17.930;2023-04-29T02:28:11;18.10;;;9.90;;
77016;SDS011;65949;53.132;17.930;2023-04-29T02:30:39;18.00;;;9.70;;
77016;SDS011;65949;53.132;17.930;2023-04-29T02:33:06;20.40;;;10.10;;
77016;SDS011;65949;53.132;17.930;2023-04-29T02:35:33;21.50;;;9.50;;
77016;SDS011;65949;53.132;17.930;2023-04-29T02:37:59;20.30;;;9.10;;
77016;SDS011;65949;53.132;17.930;2023-04-29T02:40:26;20.40;;;9.20;;
77016;SDS011;65949;53.132;17.930;2023-04-29T02:42:53;19.00;;;9.20;;
77016;SDS011;65949;53.132;17.930;2023-04-29T02:45:19;19.00;;;9.00;;
77016;SDS011;65949;53.132;17.930;2023-04-29T02:47:46;18.80;;;9.80;;
77016;SDS011;65949;53.132;17.930;2023-04-29T02:50:13;19.30;;;9.40;;
77016;SDS011;65949;53.132;17.930;2023-04-29T02:52:40;16.60;;;9.40;;
77016;SDS011;65949;53.132;17.930;2023-04-29T02:55:07;17.10;;;9.30;;
77016;SDS011;65949;53.132;17.930;2023-04-29T02:57:34;18.40;;;9.30;;
77016;SDS011;65949;53.132;17.930;2023-04-29T03:00:01;18.50;;;9.90;;
77016;SDS011;65949;53.132;17.930;2023-04-29T03:02:29;15.90;;;9.50;;
77016;SDS011;65949;53.132;17.930;2023-04-29T03:04:57;18.70;;;9.70;;
77016;SDS011;65949;53.132;17.930;2023-04-29T03:07:24;18.70;;;10.10;;
77016;SDS011;65949;53.132;17.930;2023-04-29T03:09:52;18.90;;;10.30;;
77016;SDS011;65949;53.132;17.930;2023-04-29T03:12:18;16.40;;;9.80;;
77016;SDS011;65949;53.132;17.930;2023-04-29T03:14:45;18.50;;;8.80;;
77016;SDS011;65949;53.132;17.930;2023-04-29T03:17:13;16.50;;;9.40;;
77016;SDS011;65949;53.132;17.930;2023-04-29T03:19:41;25.80;;;10.50;;
77016;SDS011;65949;53.132;17.930;2023-04-29T03:22:07;20.30;;;9.90;;
77016;SDS011;65949;53.132;17.930;2023-04-29T03:24:37;22.40;;;10.40;;
77016;SDS011;65949;53.132;17.930;2023-04-29T03:27:04;22.40;;;10.70;;
77016;SDS011;65949;53.132;17.930;2023-04-29T03:29:32;30.20;;;11.20;;
77016;SDS011;65949;53.132;17.930;2023-04-29T03:31:59;29.70;;;11.60;;
77016;SDS011;65949;53.132;17.930;2023-04-29T03:34:26;23.30;;;10.00;;
77016;SDS011;65949;53.132;17.930;2023-04-29T03:37:05;19.00;;;10.50;;
77016;SDS011;65949;53.132;17.930;2023-04-29T03:39:32;20.70;;;11.00;;
77016;SDS011;65949;53.132;17.930;2023-04-29T03:41:58;20.40;;;10.40;;
77016;SDS011;65949;53.132;17.930;2023-04-29T03:44:25;19.10;;;9.80;;
77016;SDS011;65949;53.132;17.930;2023-04-29T03:46:54;17.40;;;9.40;;
77016;SDS011;65949;53.132;17.930;2023-04-29T03:49:22;19.30;;;10.20;;
77016;SDS011;65949;53.132;17.930;2023-04-29T03:51:49;18.90;;;10.10;;
77016;SDS011;65949;53.132;17.930;2023-04-29T03:54:16;17.40;;;10.00;;
77016;SDS011;65949;53.132;17.930;2023-04-29T03:56:43;19.40;;;10.20;;
77016;SDS011;65949;53.132;17.930;2023-04-29T03:59:10;18.90;;;10.10;;
77016;SDS011;65949;53.132;17.930;2023-04-29T04:01:37;19.90;;;10.20;;
77016;SDS011;65949;53.132;17.930;2023-04-29T04:04:03;23.80;;;11.00;;
77016;SDS011;65949;53.132;17.930;2023-04-29T04:06:30;22.90;;;11.30;;
77016;SDS011;65949;53.132;17.930;2023-04-29T04:08:57;20.00;;;9.70;;
77016;SDS011;65949;53.132;17.930;2023-04-29T04:11:27;18.90;;;10.20;;
77016;SDS011;65949;53.132;17.930;2023-04-29T04:13:57;19.50;;;10.20;;
77016;SDS011;65949;53.132;17.930;2023-04-29T04:16:24;18.80;;;10.30;;
77016;SDS011;65949;53.132;17.930;2023-04-29T04:18:51;17.40;;;11.30;;
77016;SDS011;65949;53.132;17.930;2023-04-29T04:21:18;20.20;;;10.20;;
77016;SDS011;65949;53.132;17.930;2023-04-29T04:23:49;17.30;;;9.80;;
77016;SDS011;65949;53.132;17.930;2023-04-29T04:26:20;16.90;;;9.90;;
77016;SDS011;65949;53.132;17.930;2023-04-29T04:28:58;20.60;;;10.70;;
77016;SDS011;65949;53.132;17.930;2023-04-29T04:31:32;23.60;;;11.50;;
77016;SDS011;65949;53.132;17.930;2023-04-29T04:33:59;20.30;;;10.80;;
77016;SDS011;65949;53.132;17.930;2023-04-29T04:36:27;34.40;;;17.50;;
77016;SDS011;65949;53.132;17.930;2023-04-29T04:38:54;28.50;;;14.40;;
77016;SDS011;65949;53.132;17.930;2023-04-29T04:41:21;24.60;;;14.70;;
77016;SDS011;65949;53.132;17.930;2023-04-29T04:43:48;23.40;;;13.60;;
77016;SDS011;65949;53.132;17.930;2023-04-29T04:46:21;21.10;;;11.90;;
77016;SDS011;65949;53.132;17.930;2023-04-29T04:49:06;33.40;;;11.50;;
77016;SDS011;65949;53.132;17.930;2023-04-29T04:51:34;21.10;;;12.50;;
77016;SDS011;65949;53.132;17.930;2023-04-29T04:54:00;25.40;;;13.00;;
77016;SDS011;65949;53.132;17.930;2023-04-29T04:56:28;45.10;;;13.20;;
77016;SDS011;65949;53.132;17.930;2023-04-29T04:58:56;21.60;;;12.60;;
77016;SDS011;65949;53.132;17.930;2023-04-29T05:01:22;55.50;;;13.60;;
77016;SDS011;65949;53.132;17.930;2023-04-29T05:03:49;35.50;;;11.10;;
77016;SDS011;65949;53.132;17.930;2023-04-29T05:06:15;22.70;;;11.00;;
77016;SDS011;65949;53.132;17.930;2023-04-29T05:08:44;22.00;;;11.20;;
77016;SDS011;65949;53.132;17.930;2023-04-29T05:11:14;22.80;;;12.20;;
77016;SDS011;65949;53.132;17.930;2023-04-29T05:13:43;26.60;;;13.20;;
77016;SDS011;65949;53.132;17.930;2023-04-29T05:16:10;21.80;;;12.00;;
77016;SDS011;65949;53.132;17.930;2023-04-29T05:18:40;25.20;;;12.90;;
77016;SDS011;65949;53.132;17.930;2023-04-29T05:21:10;29.70;;;15.40;;
77016;SDS011;65949;53.132;17.930;2023-04-29T05:23:37;19.70;;;11.10;;
77016;SDS011;65949;53.132;17.930;2023-04-29T05:26:04;25.20;;;12.30;;
77016;SDS011;65949;53.132;17.930;2023-04-29T05:28:30;37.00;;;15.70;;
77016;SDS011;65949;53.132;17.930;2023-04-29T05:30:57;25.20;;;13.30;;
77016;SDS011;65949;53.132;17.930;2023-04-29T05:33:24;20.70;;;11.60;;
77016;SDS011;65949;53.132;17.930;2023-04-29T05:35:51;24.90;;;11.90;;
77016;SDS011;65949;53.132;17.930;2023-04-29T05:38:18;30.40;;;11.80;;
77016;SDS011;65949;53.132;17.930;2023-04-29T05:40:54;26.10;;;11.80;;
77016;SDS011;65949;53.132;17.930;2023-04-29T05:43:40;23.80;;;11.90;;
77016;SDS011;65949;53.132;17.930;2023-04-29T05:46:07;25.80;;;14.90;;
77016;SDS011;65949;53.132;17.930;2023-04-29T05:48:33;24.60;;;12.80;;
77016;SDS011;65949;53.132;17.930;2023-04-29T05:51:00;28.90;;;14.80;;
77016;SDS011;65949;53.132;17.930;2023-04-29T05:53:27;28.40;;;12.90;;
77016;SDS011;65949;53.132;17.930;2023-04-29T05:55:54;34.40;;;13.90;;
77016;SDS011;65949;53.132;17.930;2023-04-29T05:58:20;29.30;;;15.90;;
77016;SDS011;65949;53.132;17.930;2023-04-29T06:00:47;26.30;;;15.00;;
77016;SDS011;65949;53.132;17.930;2023-04-29T06:03:17;26.60;;;13.70;;
77016;SDS011;65949;53.132;17.930;2023-04-29T06:05:44;21.40;;;12.30;;
77016;SDS011;65949;53.132;17.930;2023-04-29T06:08:20;24.70;;;12.70;;
77016;SDS011;65949;53.132;17.930;2023-04-29T06:10:52;24.20;;;11.10;;
77016;SDS011;65949;53.132;17.930;2023-04-29T06:13:19;21.10;;;11.20;;
77016;SDS011;65949;53.132;17.930;2023-04-29T06:15:46;22.40;;;12.10;;
77016;SDS011;65949;53.132;17.930;2023-04-29T06:18:14;24.00;;;11.30;;
77016;SDS011;65949;53.132;17.930;2023-04-29T06:20:42;56.50;;;18.80;;
77016;SDS011;65949;53.132;17.930;2023-04-29T06:23:08;29.30;;;13.80;;
77016;SDS011;65949;53.132;17.930;2023-04-29T06:25:35;28.80;;;13.10;;
77016;SDS011;65949;53.132;17.930;2023-04-29T06:28:05;18.80;;;10.80;;
77016;SDS011;65949;53.132;17.930;2023-04-29T06:30:33;25.40;;;11.80;;
77016;SDS011;65949;53.132;17.930;2023-04-29T06:33:00;22.90;;;11.70;;
77016;SDS011;65949;53.132;17.930;2023-04-29T06:35:26;24.40;;;11.80;;
77016;SDS011;65949;53.132;17.930;2023-04-29T06:38:05;26.50;;;12.40;;
77016;SDS011;65949;53.132;17.930;2023-04-29T06:40:52;23.60;;;12.70;;
77016;SDS011;65949;53.132;17.930;2023-04-29T06:43:49;39.30;;;13.70;;
77016;SDS011;65949;53.132;17.930;2023-04-29T06:46:35;26.50;;;12.80;;
77016;SDS011;65949;53.132;17.930;2023-04-29T06:49:17;22.40;;;12.00;;
77016;SDS011;65949;53.132;17.930;2023-04-29T06:51:44;22.00;;;12.30;;
77016;SDS011;65949;53.132;17.930;2023-04-29T06:54:10;22.80;;;12.00;;
77016;SDS011;65949;53.132;17.930;2023-04-29T06:56:37;22.50;;;12.30;;
77016;SDS011;65949;53.132;17.930;2023-04-29T06:59:04;20.00;;;11.70;;
77016;SDS011;65949;53.132;17.930;2023-04-29T07:01:30;25.10;;;11.90;;
77016;SDS011;65949;53.132;17.930;2023-04-29T07:03:57;17.30;;;10.30;;
77016;SDS011;65949;53.132;17.930;2023-04-29T07:06:24;19.90;;;10.40;;
77016;SDS011;65949;53.132;17.930;2023-04-29T07:08:51;18.80;;;9.00;;
77016;SDS011;65949;53.132;17.930;2023-04-29T07:11:18;19.00;;;9.30;;
77016;SDS011;65949;53.132;17.930;2023-04-29T07:13:44;17.40;;;9.20;;
77016;SDS011;65949;53.132;17.930;2023-04-29T07:16:15;19.20;;;11.20;;
77016;SDS011;65949;53.132;17.930;2023-04-29T07:18:47;18.00;;;9.90;;
77016;SDS011;65949;53.132;17.930;2023-04-29T07:21:14;19.80;;;9.90;;
77016;SDS011;65949;53.132;17.930;2023-04-29T07:23:42;19.40;;;10.50;;
77016;SDS011;65949;53.132;17.930;2023-04-29T07:26:12;16.70;;;10.10;;
77016;SDS011;65949;53.132;17.930;2023-04-29T07:28:43;30.80;;;12.90;;
77016;SDS011;65949;53.132;17.930;2023-04-29T07:31:10;24.60;;;11.20;;
77016;SDS011;65949;53.132;17.930;2023-04-29T07:33:38;20.60;;;11.60;;
77016;SDS011;65949;53.132;17.930;2023-04-29T07:36:05;21.80;;;11.50;;
77016;SDS011;65949;53.132;17.930;2023-04-29T07:38:33;18.80;;;11.00;;
77016;SDS011;65949;53.132;17.930;2023-04-29T07:41:00;17.20;;;10.30;;
77016;SDS011;65949;53.132;17.930;2023-04-29T07:43:26;26.30;;;13.20;;
77016;SDS011;65949;53.132;17.930;2023-04-29T07:45:54;24.70;;;12.40;;
77016;SDS011;65949;53.132;17.930;2023-04-29T07:48:20;18.00;;;10.20;;
77016;SDS011;65949;53.132;17.930;2023-04-29T07:50:47;23.20;;;10.60;;
77016;SDS011;65949;53.132;17.930;2023-04-29T07:53:17;22.10;;;11.30;;
77016;SDS011;65949;53.132;17.930;2023-04-29T07:55:43;24.00;;;14.50;;
77016;SDS011;65949;53.132;17.930;2023-04-29T07:58:10;21.10;;;11.80;;
77016;SDS011;65949;53.132;17.930;2023-04-29T08:00:37;18.80;;;11.60;;
77016;SDS011;65949;53.132;17.930;2023-04-29T08:03:05;20.70;;;11.40;;
77016;SDS011;65949;53.132;17.930;2023-04-29T08:05:32;20.70;;;11.40;;
77016;SDS011;65949;53.132;17.930;2023-04-29T08:07:59;18.90;;;10.90;;
77016;SDS011;65949;53.132;17.930;2023-04-29T08:10:26;19.80;;;11.10;;
77016;SDS011;65949;53.132;17.930;2023-04-29T08:12:52;20.40;;;11.30;;
77016;SDS011;65949;53.132;17.930;2023-04-29T08:15:19;20.90;;;12.70;;
77016;SDS011;65949;53.132;17.930;2023-04-29T08:17:46;20.40;;;11.90;;
77016;SDS011;65949;53.132;17.930;2023-04-29T08:20:13;18.50;;;11.50;;
77016;SDS011;65949;53.132;17.930;2023-04-29T08:22:40;22.90;;;11.50;;
77016;SDS011;65949;53.132;17.930;2023-04-29T08:25:08;18.30;;;11.10;;
77016;SDS011;65949;53.132;17.930;2023-04-29T08:27:35;22.10;;;11.60;;
77016;SDS011;65949;53.132;17.930;2023-04-29T08:30:02;22.30;;;12.00;;
77016;SDS011;65949;53.132;17.930;2023-04-29T08:32:29;20.00;;;11.10;;
77016;SDS011;65949;53.132;17.930;2023-04-29T08:34:56;18.70;;;11.00;;
77016;SDS011;65949;53.132;17.930;2023-04-29T08:37:23;20.50;;;11.30;;
77016;SDS011;65949;53.132;17.930;2023-04-29T08:39:49;23.90;;;11.80;;
77016;SDS011;65949;53.132;17.930;2023-04-29T08:42:16;26.00;;;11.50;;
77016;SDS011;65949;53.132;17.930;2023-04-29T08:44:55;19.00;;;12.00;;
77016;SDS011;65949;53.132;17.930;2023-04-29T08:47:26;22.30;;;12.00;;
77016;SDS011;65949;53.132;17.930;2023-04-29T08:49:58;20.00;;;12.20;;
77016;SDS011;65949;53.132;17.930;2023-04-29T08:52:32;20.00;;;11.50;;
77016;SDS011;65949;53.132;17.930;2023-04-29T08:54:59;18.70;;;10.80;;
77016;SDS011;65949;53.132;17.930;2023-04-29T08:57:28;19.90;;;11.80;;
77016;SDS011;65949;53.132;17.930;2023-04-29T08:59:58;18.30;;;11.40;;
77016;SDS011;65949;53.132;17.930;2023-04-29T09:02:26;18.80;;;11.00;;
77016;SDS011;65949;53.132;17.930;2023-04-29T09:05:03;20.50;;;12.00;;
77016;SDS011;65949;53.132;17.930;2023-04-29T09:07:34;22.90;;;11.30;;
77016;SDS011;65949;53.132;17.930;2023-04-29T09:10:03;20.00;;;12.10;;
77016;SDS011;65949;53.132;17.930;2023-04-29T09:12:30;21.10;;;12.70;;
77016;SDS011;65949;53.132;17.930;2023-04-29T09:14:57;18.30;;;12.20;;
77016;SDS011;65949;53.132;17.930;2023-04-29T09:17:43;20.60;;;11.10;;
77016;SDS011;65949;53.132;17.930;2023-04-29T09:22:51;16.20;;;11.20;;
77016;SDS011;65949;53.132;17.930;2023-04-29T09:25:25;17.20;;;10.50;;
77016;SDS011;65949;53.132;17.930;2023-04-29T09:27:53;19.20;;;11.00;;
77016;SDS011;65949;53.132;17.930;2023-04-29T09:30:21;18.90;;;11.00;;
77016;SDS011;65949;53.132;17.930;2023-04-29T09:33:04;18.70;;;10.70;;
77016;SDS011;65949;53.132;17.930;2023-04-29T09:35:35;20.30;;;10.90;;
77016;SDS011;65949;53.132;17.930;2023-04-29T09:38:08;19.20;;;11.40;;
77016;SDS011;65949;53.132;17.930;2023-04-29T09:40:40;17.50;;;10.90;;
77016;SDS011;65949;53.132;17.930;2023-04-29T09:43:15;19.70;;;11.20;;
77016;SDS011;65949;53.132;17.930;2023-04-29T09:45:45;18.80;;;10.30;;
77016;SDS011;65949;53.132;17.930;2023-04-29T09:48:13;21.30;;;10.30;;
77016;SDS011;65949;53.132;17.930;2023-04-29T09:50:41;17.00;;;9.60;;
77016;SDS011;65949;53.132;17.930;2023-04-29T09:53:09;18.90;;;11.00;;
77016;SDS011;65949;53.132;17.930;2023-04-29T09:56:11;18.60;;;11.50;;
77016;SDS011;65949;53.132;17.930;2023-04-29T09:58:31;15.40;;;9.60;;
77016;SDS011;65949;53.132;17.930;2023-04-29T10:01:05;19.20;;;10.60;;
77016;SDS011;65949;53.132;17.930;2023-04-29T10:03:33;19.10;;;10.60;;
77016;SDS011;65949;53.132;17.930;2023-04-29T10:06:02;18.60;;;10.50;;
77016;SDS011;65949;53.132;17.930;2023-04-29T10:08:30;19.40;;;11.10;;
77016;SDS011;65949;53.132;17.930;2023-04-29T10:10:58;19.30;;;10.80;;
77016;SDS011;65949;53.132;17.930;2023-04-29T10:13:29;16.50;;;10.00;;
77016;SDS011;65949;53.132;17.930;2023-04-29T10:16:07;20.10;;;9.80;;
77016;SDS011;65949;53.132;17.930;2023-04-29T10:18:35;18.30;;;11.40;;
77016;SDS011;65949;53.132;17.930;2023-04-29T10:21:03;17.60;;;11.30;;
77016;SDS011;65949;53.132;17.930;2023-04-29T10:23:33;18.10;;;11.20;;
77016;SDS011;65949;53.132;17.930;2023-04-29T10:25:59;22.20;;;11.80;;
77016;SDS011;65949;53.132;17.930;2023-04-29T10:28:32;18.10;;;10.50;;
77016;SDS011;65949;53.132;17.930;2023-04-29T10:31:01;18.80;;;10.60;;
77016;SDS011;65949;53.132;17.930;2023-04-29T10:33:30;17.80;;;10.60;;
77016;SDS011;65949;53.132;17.930;2023-04-29T10:35:59;18.90;;;11.30;;
77016;SDS011;65949;53.132;17.930;2023-04-29T10:38:30;19.90;;;11.00;;
77016;SDS011;65949;53.132;17.930;2023-04-29T10:41:03;21.90;;;11.80;;
77016;SDS011;65949;53.132;17.930;2023-04-29T10:43:40;17.10;;;10.50;;
77016;SDS011;65949;53.132;17.930;2023-04-29T10:48:46;19.60;;;11.60;;
77016;SDS011;65949;53.132;17.930;2023-04-29T10:51:48;22.70;;;11.80;;
77016;SDS011;65949;53.132;17.930;2023-04-29T10:56:40;28.60;;;14.40;;
77016;SDS011;65949;53.132;17.930;2023-04-29T10:59:17;23.00;;;12.90;;
77016;SDS011;65949;53.132;17.930;2023-04-29T11:04:13;25.50;;;15.70;;
77016;SDS011;65949;53.132;17.930;2023-04-29T11:06:43;20.70;;;13.20;;
77016;SDS011;65949;53.132;17.930;2023-04-29T11:09:17;17.50;;;10.90;;
77016;SDS011;65949;53.132;17.930;2023-04-29T11:17:09;19.30;;;11.40;;
77016;SDS011;65949;53.132;17.930;2023-04-29T11:19:42;20.70;;;11.60;;
77016;SDS011;65949;53.132;17.930;2023-04-29T11:24:47;17.90;;;12.50;;
77016;SDS011;65949;53.132;17.930;2023-04-29T11:27:26;18.20;;;11.30;;
77016;SDS011;65949;53.132;17.930;2023-04-29T11:29:57;21.40;;;13.10;;
77016;SDS011;65949;53.132;17.930;2023-04-29T11:32:29;22.20;;;10.90;;
77016;SDS011;65949;53.132;17.930;2023-04-29T11:35:16;18.30;;;11.30;;
77016;SDS011;65949;53.132;17.930;2023-04-29T11:37:44;20.00;;;11.70;;
77016;SDS011;65949;53.132;17.930;2023-04-29T11:40:12;21.80;;;13.80;;
77016;SDS011;65949;53.132;17.930;2023-04-29T11:42:43;19.00;;;10.60;;
77016;SDS011;65949;53.132;17.930;2023-04-29T11:45:12;20.20;;;11.50;;
77016;SDS011;65949;53.132;17.930;2023-04-29T11:47:41;22.60;;;12.60;;
77016;SDS011;65949;53.132;17.930;2023-04-29T11:50:12;18.80;;;12.70;;
77016;SDS011;65949;53.132;17.930;2023-04-29T11:52:42;27.00;;;13.80;;
77016;SDS011;65949;53.132;17.930;2023-04-29T11:55:10;25.40;;;16.90;;
77016;SDS011;65949;53.132;17.930;2023-04-29T11:57:37;22.10;;;14.80;;
77016;SDS011;65949;53.132;17.930;2023-04-29T12:00:09;19.90;;;14.10;;
77016;SDS011;65949;53.132;17.930;2023-04-29T12:02:42;21.10;;;15.50;;
77016;SDS011;65949;53.132;17.930;2023-04-29T12:05:10;20.00;;;13.40;;
77016;SDS011;65949;53.132;17.930;2023-04-29T12:07:38;19.60;;;13.10;;
77016;SDS011;65949;53.132;17.930;2023-04-29T12:10:08;18.00;;;12.20;;
77016;SDS011;65949;53.132;17.930;2023-04-29T12:12:38;20.80;;;12.90;;
77016;SDS011;65949;53.132;17.930;2023-04-29T12:15:08;24.70;;;13.30;;
77016;SDS011;65949;53.132;17.930;2023-04-29T12:17:35;24.00;;;15.40;;
77016;SDS011;65949;53.132;17.930;2023-04-29T12:20:03;28.80;;;12.40;;
77016;SDS011;65949;53.132;17.930;2023-04-29T12:22:31;18.80;;;12.30;;
77016;SDS011;65949;53.132;17.930;2023-04-29T12:24:58;19.60;;;12.60;;
77016;SDS011;65949;53.132;17.930;2023-04-29T12:27:25;20.50;;;12.70;;
77016;SDS011;65949;53.132;17.930;2023-04-29T12:29:52;20.70;;;13.00;;
77016;SDS011;65949;53.132;17.930;2023-04-29T12:32:22;23.00;;;13.20;;
77016;SDS011;65949;53.132;17.930;2023-04-29T12:34:50;21.70;;;12.30;;
77016;SDS011;65949;53.132;17.930;2023-04-29T12:37:18;23.30;;;13.70;;
77016;SDS011;65949;53.132;17.930;2023-04-29T12:39:48;24.90;;;16.80;;
77016;SDS011;65949;53.132;17.930;2023-04-29T12:42:16;37.30;;;14.30;;
77016;SDS011;65949;53.132;17.930;2023-04-29T12:44:46;19.80;;;11.90;;
77016;SDS011;65949;53.132;17.930;2023-04-29T12:47:13;19.80;;;12.40;;
77016;SDS011;65949;53.132;17.930;2023-04-29T12:49:42;22.90;;;14.80;;
77016;SDS011;65949;53.132;17.930;2023-04-29T12:52:13;30.80;;;19.70;;
77016;SDS011;65949;53.132;17.930;2023-04-29T12:54:40;28.00;;;17.80;;
77016;SDS011;65949;53.132;17.930;2023-04-29T12:57:11;22.40;;;14.50;;
77016;SDS011;65949;53.132;17.930;2023-04-29T12:59:38;22.90;;;12.80;;
77016;SDS011;65949;53.132;17.930;2023-04-29T13:02:06;24.70;;;12.50;;
77016;SDS011;65949;53.132;17.930;2023-04-29T13:04:32;21.10;;;12.00;;
77016;SDS011;65949;53.132;17.930;2023-04-29T13:06:59;20.80;;;15.30;;
77016;SDS011;65949;53.132;17.930;2023-04-29T13:09:26;20.50;;;12.70;;
77016;SDS011;65949;53.132;17.930;2023-04-29T13:11:52;16.20;;;10.80;;
77016;SDS011;65949;53.132;17.930;2023-04-29T13:14:19;31.70;;;11.50;;
77016;SDS011;65949;53.132;17.930;2023-04-29T13:16:46;19.60;;;13.30;;
77016;SDS011;65949;53.132;17.930;2023-04-29T13:19:13;19.00;;;11.20;;
77016;SDS011;65949;53.132;17.930;2023-04-29T13:21:40;17.40;;;11.70;;
77016;SDS011;65949;53.132;17.930;2023-04-29T13:24:06;16.20;;;10.40;;
77016;SDS011;65949;53.132;17.930;2023-04-29T13:26:33;18.20;;;11.50;;
77016;SDS011;65949;53.132;17.930;2023-04-29T13:29:00;19.70;;;12.60;;
77016;SDS011;65949;53.132;17.930;2023-04-29T13:31:27;18.10;;;12.30;;
77016;SDS011;65949;53.132;17.930;2023-04-29T13:38:08;23.00;;;14.10;;
77016;SDS011;65949;53.132;17.930;2023-04-29T13:40:34;18.90;;;12.70;;
77016;SDS011;65949;53.132;17.930;2023-04-29T13:43:01;22.90;;;14.70;;
77016;SDS011;65949;53.132;17.930;2023-04-29T13:45:29;18.70;;;12.20;;
77016;SDS011;65949;53.132;17.930;2023-04-29T13:47:56;19.40;;;14.30;;
77016;SDS011;65949;53.132;17.930;2023-04-29T13:50:23;22.80;;;13.90;;
77016;SDS011;65949;53.132;17.930;2023-04-29T13:52:49;20.20;;;11.20;;
77016;SDS011;65949;53.132;17.930;2023-04-29T13:55:16;18.00;;;13.80;;
77016;SDS011;65949;53.132;17.930;2023-04-29T13:57:43;16.60;;;11.50;;
77016;SDS011;65949;53.132;17.930;2023-04-29T14:00:10;23.20;;;14.20;;
77016;SDS011;65949;53.132;17.930;2023-04-29T14:02:38;18.90;;;12.50;;
77016;SDS011;65949;53.132;17.930;2023-04-29T14:05:05;32.90;;;15.60;;
77016;SDS011;65949;53.132;17.930;2023-04-29T14:07:31;18.80;;;12.40;;
77016;SDS011;65949;53.132;17.930;2023-04-29T14:09:58;17.00;;;12.10;;
77016;SDS011;65949;53.132;17.930;2023-04-29T14:12:25;20.40;;;13.80;;
77016;SDS011;65949;53.132;17.930;2023-04-29T14:14:51;23.20;;;14.00;;
77016;SDS011;65949;53.132;17.930;2023-04-29T14:17:18;23.90;;;14.30;;
77016;SDS011;65949;53.132;17.930;2023-04-29T14:19:45;24.00;;;15.10;;
77016;SDS011;65949;53.132;17.930;2023-04-29T14:22:12;18.40;;;13.30;;
77016;SDS011;65949;53.132;17.930;2023-04-29T14:24:38;17.10;;;11.30;;
77016;SDS011;65949;53.132;17.930;2023-04-29T14:27:05;26.50;;;14.10;;
77016;SDS011;65949;53.132;17.930;2023-04-29T14:29:31;26.30;;;15.10;;
77016;SDS011;65949;53.132;17.930;2023-04-29T14:31:58;18.00;;;12.70;;
77016;SDS011;65949;53.132;17.930;2023-04-29T14:34:25;21.10;;;12.40;;
77016;SDS011;65949;53.132;17.930;2023-04-29T14:36:51;20.00;;;13.10;;
77016;SDS011;65949;53.132;17.930;2023-04-29T14:39:18;25.50;;;13.40;;
77016;SDS011;65949;53.132;17.930;2023-04-29T14:41:44;22.20;;;14.10;;
77016;SDS011;65949;53.132;17.930;2023-04-29T14:44:12;30.10;;;15.00;;
77016;SDS011;65949;53.132;17.930;2023-04-29T14:46:38;22.40;;;12.20;;
77016;SDS011;65949;53.132;17.930;2023-04-29T14:49:05;18.00;;;11.30;;
77016;SDS011;65949;53.132;17.930;2023-04-29T14:51:31;19.20;;;12.10;;
77016;SDS011;65949;53.132;17.930;2023-04-29T14:53:58;45.70;;;26.30;;
77016;SDS011;65949;53.132;17.930;2023-04-29T14:56:25;28.30;;;18.40;;
77016;SDS011;65949;53.132;17.930;2023-04-29T14:58:52;23.30;;;15.60;;